sensor_id;sensor_type;location;lat;lon;timestamp;temperature;humidity
19164;DHT22;9714;51.208;4.242;2023-05-07T00:00:28;17.50;99.90
19164;DHT22;9714;51.208;4.242;2023-05-07T00:02:55;17.50;99.90
19164;DHT22;9714;51.208;4.242;2023-05-07T00:05:22;17.50;99.90
19164;DHT22;9714;51.208;4.242;2023-05-07T00:07:50;17.50;99.90
19164;DHT22;9714;51.208;4.242;2023-05-07T00:10:18;17.60;99.90
19164;DHT22;9714;51.208;4.242;2023-05-07T00:12:45;17.40;99.90
19164;DHT22;9714;51.208;4.242;2023-05-07T00:15:12;17.20;99.90
19164;DHT22;9714;51.208;4.242;2023-05-07T00:17:41;17.20;99.90
19164;DHT22;9714;51.208;4.242;2023-05-07T00:20:08;17.20;99.90
19164;DHT22;9714;51.208;4.242;2023-05-07T00:22:35;17.20;99.90
19164;DHT22;9714;51.208;4.242;2023-05-07T00:25:03;17.30;99.90
19164;DHT22;9714;51.208;4.242;2023-05-07T00:27:31;17.30;99.90
19164;DHT22;9714;51.208;4.242;2023-05-07T00:29:58;17.40;99.90
19164;DHT22;9714;51.208;4.242;2023-05-07T00:32:25;17.40;99.90
19164;DHT22;9714;51.208;4.242;2023-05-07T00:34:53;17.40;99.90
19164;DHT22;9714;51.208;4.242;2023-05-07T00:37:21;17.40;99.90
19164;DHT22;9714;51.208;4.242;2023-05-07T00:39:48;17.30;99.90
19164;DHT22;9714;51.208;4.242;2023-05-07T00:42:15;17.40;99.90
19164;DHT22;9714;51.208;4.242;2023-05-07T00:44:42;17.30;99.90
19164;DHT22;9714;51.208;4.242;2023-05-07T00:47:09;17.40;99.90
19164;DHT22;9714;51.208;4.242;2023-05-07T00:49:38;17.40;99.90
19164;DHT22;9714;51.208;4.242;2023-05-07T00:52:08;17.40;99.90
19164;DHT22;9714;51.208;4.242;2023-05-07T00:54:36;17.40;99.90
19164;DHT22;9714;51.208;4.242;2023-05-07T00:57:04;17.40;99.90
19164;DHT22;9714;51.208;4.242;2023-05-07T00:59:32;17.30;99.90
19164;DHT22;9714;51.208;4.242;2023-05-07T01:02:00;17.30;99.90
19164;DHT22;9714;51.208;4.242;2023-05-07T01:04:27;17.40;99.90
19164;DHT22;9714;51.208;4.242;2023-05-07T01:06:55;17.50;99.90
19164;DHT22;9714;51.208;4.242;2023-05-07T01:09:24;17.40;99.90
19164;DHT22;9714;51.208;4.242;2023-05-07T01:11:52;17.30;99.90
19164;DHT22;9714;51.208;4.242;2023-05-07T01:14:20;17.10;99.90
19164;DHT22;9714;51.208;4.242;2023-05-07T01:16:47;17.20;99.90
19164;DHT22;9714;51.208;4.242;2023-05-07T01:19:18;17.10;99.90
19164;DHT22;9714;51.208;4.242;2023-05-07T01:21:47;17.00;99.90
19164;DHT22;9714;51.208;4.242;2023-05-07T01:24:16;16.90;99.90
19164;DHT22;9714;51.208;4.242;2023-05-07T01:26:44;16.90;99.90
19164;DHT22;9714;51.208;4.242;2023-05-07T01:29:11;16.80;99.90
19164;DHT22;9714;51.208;4.242;2023-05-07T01:31:39;16.80;99.90
19164;DHT22;9714;51.208;4.242;2023-05-07T01:34:08;16.70;99.90
19164;DHT22;9714;51.208;4.242;2023-05-07T01:36:38;16.70;99.90
19164;DHT22;9714;51.208;4.242;2023-05-07T01:39:07;16.70;99.90
19164;DHT22;9714;51.208;4.242;2023-05-07T01:41:36;16.70;99.90
19164;DHT22;9714;51.208;4.242;2023-05-07T01:44:04;16.80;99.90
19164;DHT22;9714;51.208;4.242;2023-05-07T01:46:33;16.90;99.90
19164;DHT22;9714;51.208;4.242;2023-05-07T01:49:00;16.80;99.90
19164;DHT22;9714;51.208;4.242;2023-05-07T01:51:27;16.80;99.90
19164;DHT22;9714;51.208;4.242;2023-05-07T01:53:55;16.70;99.90
19164;DHT22;9714;51.208;4.242;2023-05-07T01:56:24;16.70;99.90
19164;DHT22;9714;51.208;4.242;2023-05-07T01:58:52;16.80;99.90
19164;DHT22;9714;51.208;4.242;2023-05-07T02:01:19;16.70;99.90
19164;DHT22;9714;51.208;4.242;2023-05-07T02:03:47;16.60;99.90
19164;DHT22;9714;51.208;4.242;2023-05-07T02:06:14;16.50;99.90
19164;DHT22;9714;51.208;4.242;2023-05-07T02:08:41;16.60;99.90
19164;DHT22;9714;51.208;4.242;2023-05-07T02:11:09;16.60;99.90
19164;DHT22;9714;51.208;4.242;2023-05-07T02:13:36;16.40;99.90
19164;DHT22;9714;51.208;4.242;2023-05-07T02:16:06;16.40;99.90
19164;DHT22;9714;51.208;4.242;2023-05-07T02:18:33;16.50;99.90
19164;DHT22;9714;51.208;4.242;2023-05-07T02:21:01;16.60;99.90
19164;DHT22;9714;51.208;4.242;2023-05-07T02:23:28;16.60;99.90
19164;DHT22;9714;51.208;4.242;2023-05-07T02:25:55;16.60;99.90
19164;DHT22;9714;51.208;4.242;2023-05-07T02:28:22;16.60;99.90
19164;DHT22;9714;51.208;4.242;2023-05-07T02:30:49;16.60;99.90
19164;DHT22;9714;51.208;4.242;2023-05-07T02:33:18;16.40;99.90
19164;DHT22;9714;51.208;4.242;2023-05-07T02:35:45;16.40;99.90
19164;DHT22;9714;51.208;4.242;2023-05-07T02:38:12;16.40;99.90
19164;DHT22;9714;51.208;4.242;2023-05-07T02:40:39;16.50;99.90
19164;DHT22;9714;51.208;4.242;2023-05-07T02:43:12;16.60;99.90
19164;DHT22;9714;51.208;4.242;2023-05-07T02:45:39;16.60;99.90
19164;DHT22;9714;51.208;4.242;2023-05-07T02:48:06;16.60;99.90
19164;DHT22;9714;51.208;4.242;2023-05-07T02:50:35;16.70;99.90
19164;DHT22;9714;51.208;4.242;2023-05-07T02:53:02;16.80;99.90
19164;DHT22;9714;51.208;4.242;2023-05-07T02:55:29;16.70;99.90
19164;DHT22;9714;51.208;4.242;2023-05-07T02:57:57;16.50;99.90
19164;DHT22;9714;51.208;4.242;2023-05-07T03:00:25;16.40;99.90
19164;DHT22;9714;51.208;4.242;2023-05-07T03:02:52;16.30;99.90
19164;DHT22;9714;51.208;4.242;2023-05-07T03:05:19;16.40;99.90
19164;DHT22;9714;51.208;4.242;2023-05-07T03:07:47;16.40;99.90
19164;DHT22;9714;51.208;4.242;2023-05-07T03:10:15;16.40;99.90
19164;DHT22;9714;51.208;4.242;2023-05-07T03:12:42;16.50;99.90
19164;DHT22;9714;51.208;4.242;2023-05-07T03:15:10;16.50;99.90
19164;DHT22;9714;51.208;4.242;2023-05-07T03:17:38;16.30;99.90
19164;DHT22;9714;51.208;4.242;2023-05-07T03:20:06;16.30;99.90
19164;DHT22;9714;51.208;4.242;2023-05-07T03:22:35;16.20;99.90
19164;DHT22;9714;51.208;4.242;2023-05-07T03:25:04;16.40;99.90
19164;DHT22;9714;51.208;4.242;2023-05-07T03:27:32;16.40;99.90
19164;DHT22;9714;51.208;4.242;2023-05-07T03:29:59;16.50;99.90
19164;DHT22;9714;51.208;4.242;2023-05-07T03:32:26;16.60;99.90
19164;DHT22;9714;51.208;4.242;2023-05-07T03:34:53;16.50;99.90
19164;DHT22;9714;51.208;4.242;2023-05-07T03:37:22;16.50;99.90
19164;DHT22;9714;51.208;4.242;2023-05-07T03:39:50;16.50;99.90
19164;DHT22;9714;51.208;4.242;2023-05-07T03:42:18;16.40;99.90
19164;DHT22;9714;51.208;4.242;2023-05-07T03:44:46;16.50;99.90
19164;DHT22;9714;51.208;4.242;2023-05-07T03:47:13;16.60;99.90
19164;DHT22;9714;51.208;4.242;2023-05-07T03:49:40;16.60;99.90
19164;DHT22;9714;51.208;4.242;2023-05-07T03:52:07;16.70;99.90
19164;DHT22;9714;51.208;4.242;2023-05-07T03:54:34;16.60;99.90
19164;DHT22;9714;51.208;4.242;2023-05-07T03:57:02;16.60;99.90
19164;DHT22;9714;51.208;4.242;2023-05-07T03:59:31;16.60;99.90
19164;DHT22;9714;51.208;4.242;2023-05-07T04:01:58;16.60;99.90
19164;DHT22;9714;51.208;4.242;2023-05-07T04:04:25;16.60;99.90
19164;DHT22;9714;51.208;4.242;2023-05-07T04:06:52;16.70;99.90
19164;DHT22;9714;51.208;4.242;2023-05-07T04:09:20;16.80;99.90
19164;DHT22;9714;51.208;4.242;2023-05-07T04:11:47;16.70;99.90
19164;DHT22;9714;51.208;4.242;2023-05-07T04:14:15;16.60;99.90
19164;DHT22;9714;51.208;4.242;2023-05-07T04:16:43;16.70;99.90
19164;DHT22;9714;51.208;4.242;2023-05-07T04:19:10;16.70;99.90
19164;DHT22;9714;51.208;4.242;2023-05-07T04:21:37;16.70;99.90
19164;DHT22;9714;51.208;4.242;2023-05-07T04:24:05;16.70;99.90
19164;DHT22;9714;51.208;4.242;2023-05-07T04:26:32;16.80;99.90
19164;DHT22;9714;51.208;4.242;2023-05-07T04:28:59;16.90;99.90
19164;DHT22;9714;51.208;4.242;2023-05-07T04:31:27;16.90;99.90
19164;DHT22;9714;51.208;4.242;2023-05-07T04:33:55;16.80;99.90
19164;DHT22;9714;51.208;4.242;2023-05-07T04:36:22;16.90;99.90
19164;DHT22;9714;51.208;4.242;2023-05-07T04:38:53;17.00;99.90
19164;DHT22;9714;51.208;4.242;2023-05-07T04:41:21;17.20;99.90
19164;DHT22;9714;51.208;4.242;2023-05-07T04:43:48;17.10;99.90
19164;DHT22;9714;51.208;4.242;2023-05-07T04:46:15;16.90;99.90
19164;DHT22;9714;51.208;4.242;2023-05-07T04:48:42;16.90;99.90
19164;DHT22;9714;51.208;4.242;2023-05-07T04:51:10;16.90;99.90
19164;DHT22;9714;51.208;4.242;2023-05-07T04:53:37;17.00;99.90
19164;DHT22;9714;51.208;4.242;2023-05-07T04:56:05;16.90;99.90
19164;DHT22;9714;51.208;4.242;2023-05-07T04:58:32;16.90;99.90
19164;DHT22;9714;51.208;4.242;2023-05-07T05:01:00;16.80;99.90
19164;DHT22;9714;51.208;4.242;2023-05-07T05:03:27;16.90;99.90
19164;DHT22;9714;51.208;4.242;2023-05-07T05:05:55;17.00;99.90
19164;DHT22;9714;51.208;4.242;2023-05-07T05:08:26;17.00;99.90
19164;DHT22;9714;51.208;4.242;2023-05-07T05:10:53;16.90;99.90
19164;DHT22;9714;51.208;4.242;2023-05-07T05:13:21;17.00;99.90
19164;DHT22;9714;51.208;4.242;2023-05-07T05:15:48;17.10;99.90
19164;DHT22;9714;51.208;4.242;2023-05-07T05:18:16;17.10;99.90
19164;DHT22;9714;51.208;4.242;2023-05-07T05:20:43;17.10;99.90
19164;DHT22;9714;51.208;4.242;2023-05-07T05:23:10;17.20;99.90
19164;DHT22;9714;51.208;4.242;2023-05-07T05:25:38;17.20;99.90
19164;DHT22;9714;51.208;4.242;2023-05-07T05:28:06;17.30;99.90
19164;DHT22;9714;51.208;4.242;2023-05-07T05:30:33;17.30;99.90
19164;DHT22;9714;51.208;4.242;2023-05-07T05:33:00;17.30;99.90
19164;DHT22;9714;51.208;4.242;2023-05-07T05:35:29;17.20;99.90
19164;DHT22;9714;51.208;4.242;2023-05-07T05:37:56;17.20;99.90
19164;DHT22;9714;51.208;4.242;2023-05-07T05:40:24;17.20;99.90
19164;DHT22;9714;51.208;4.242;2023-05-07T05:42:52;17.10;99.90
19164;DHT22;9714;51.208;4.242;2023-05-07T05:45:20;17.10;99.90
19164;DHT22;9714;51.208;4.242;2023-05-07T05:47:47;17.30;99.90
19164;DHT22;9714;51.208;4.242;2023-05-07T05:50:14;17.30;99.90
19164;DHT22;9714;51.208;4.242;2023-05-07T05:52:41;17.40;99.90
19164;DHT22;9714;51.208;4.242;2023-05-07T05:55:08;17.40;99.90
19164;DHT22;9714;51.208;4.242;2023-05-07T05:57:36;17.40;99.90
19164;DHT22;9714;51.208;4.242;2023-05-07T06:00:05;17.40;99.90
19164;DHT22;9714;51.208;4.242;2023-05-07T06:02:33;17.40;99.90
19164;DHT22;9714;51.208;4.242;2023-05-07T06:05:00;17.60;99.90
19164;DHT22;9714;51.208;4.242;2023-05-07T06:07:28;17.60;99.90
19164;DHT22;9714;51.208;4.242;2023-05-07T06:09:55;17.50;99.90
19164;DHT22;9714;51.208;4.242;2023-05-07T06:12:28;17.50;99.90
19164;DHT22;9714;51.208;4.242;2023-05-07T06:14:55;17.90;99.90
19164;DHT22;9714;51.208;4.242;2023-05-07T06:17:30;17.90;99.90
19164;DHT22;9714;51.208;4.242;2023-05-07T06:19:57;17.90;99.90
19164;DHT22;9714;51.208;4.242;2023-05-07T06:22:24;18.00;99.90
19164;DHT22;9714;51.208;4.242;2023-05-07T06:24:51;17.90;99.90
19164;DHT22;9714;51.208;4.242;2023-05-07T06:27:19;18.00;99.90
19164;DHT22;9714;51.208;4.242;2023-05-07T06:29:47;18.20;99.90
19164;DHT22;9714;51.208;4.242;2023-05-07T06:32:15;18.30;99.90
19164;DHT22;9714;51.208;4.242;2023-05-07T06:34:44;18.60;99.90
19164;DHT22;9714;51.208;4.242;2023-05-07T06:37:11;18.50;99.90
19164;DHT22;9714;51.208;4.242;2023-05-07T06:39:38;18.40;99.90
19164;DHT22;9714;51.208;4.242;2023-05-07T06:42:05;18.60;99.90
19164;DHT22;9714;51.208;4.242;2023-05-07T06:44:32;18.70;99.90
19164;DHT22;9714;51.208;4.242;2023-05-07T06:46:59;18.70;99.90
19164;DHT22;9714;51.208;4.242;2023-05-07T06:49:27;18.70;99.90
19164;DHT22;9714;51.208;4.242;2023-05-07T06:51:55;18.70;99.90
19164;DHT22;9714;51.208;4.242;2023-05-07T06:54:23;18.90;99.90
19164;DHT22;9714;51.208;4.242;2023-05-07T06:56:51;19.40;99.90
19164;DHT22;9714;51.208;4.242;2023-05-07T06:59:18;19.60;99.90
19164;DHT22;9714;51.208;4.242;2023-05-07T07:01:46;19.40;99.90
19164;DHT22;9714;51.208;4.242;2023-05-07T07:04:13;19.50;99.90
19164;DHT22;9714;51.208;4.242;2023-05-07T07:06:40;19.50;99.90
19164;DHT22;9714;51.208;4.242;2023-05-07T07:09:08;19.40;99.90
19164;DHT22;9714;51.208;4.242;2023-05-07T07:11:36;19.50;99.90
19164;DHT22;9714;51.208;4.242;2023-05-07T07:14:04;19.60;99.90
19164;DHT22;9714;51.208;4.242;2023-05-07T07:16:32;19.60;99.90
19164;DHT22;9714;51.208;4.242;2023-05-07T07:18:59;19.50;99.90
19164;DHT22;9714;51.208;4.242;2023-05-07T07:21:27;19.70;99.90
19164;DHT22;9714;51.208;4.242;2023-05-07T07:23:54;19.80;99.90
19164;DHT22;9714;51.208;4.242;2023-05-07T07:26:22;19.90;99.90
19164;DHT22;9714;51.208;4.242;2023-05-07T07:28:49;19.70;99.90
19164;DHT22;9714;51.208;4.242;2023-05-07T07:31:16;19.90;99.90
19164;DHT22;9714;51.208;4.242;2023-05-07T07:33:43;19.90;99.90
19164;DHT22;9714;51.208;4.242;2023-05-07T07:36:11;19.90;99.90
19164;DHT22;9714;51.208;4.242;2023-05-07T07:38:38;19.90;99.90
19164;DHT22;9714;51.208;4.242;2023-05-07T07:41:05;19.80;99.90
19164;DHT22;9714;51.208;4.242;2023-05-07T07:43:33;20.00;99.90
19164;DHT22;9714;51.208;4.242;2023-05-07T07:46:01;20.10;99.90
19164;DHT22;9714;51.208;4.242;2023-05-07T07:48:28;20.20;99.90
19164;DHT22;9714;51.208;4.242;2023-05-07T07:50:55;20.10;99.90
19164;DHT22;9714;51.208;4.242;2023-05-07T07:53:22;20.10;99.90
19164;DHT22;9714;51.208;4.242;2023-05-07T07:55:49;20.10;99.90
19164;DHT22;9714;51.208;4.242;2023-05-07T07:58:16;20.20;99.90
19164;DHT22;9714;51.208;4.242;2023-05-07T08:00:44;20.00;99.90
19164;DHT22;9714;51.208;4.242;2023-05-07T08:03:12;20.20;99.90
19164;DHT22;9714;51.208;4.242;2023-05-07T08:05:42;20.30;99.90
19164;DHT22;9714;51.208;4.242;2023-05-07T08:08:09;20.30;99.90
19164;DHT22;9714;51.208;4.242;2023-05-07T08:10:36;20.20;99.90
19164;DHT22;9714;51.208;4.242;2023-05-07T08:13:05;20.10;99.90
19164;DHT22;9714;51.208;4.242;2023-05-07T08:15:32;20.20;99.90
19164;DHT22;9714;51.208;4.242;2023-05-07T08:18:01;20.60;99.90
19164;DHT22;9714;51.208;4.242;2023-05-07T08:20:28;20.80;99.90
19164;DHT22;9714;51.208;4.242;2023-05-07T08:22:57;20.70;99.90
19164;DHT22;9714;51.208;4.242;2023-05-07T08:25:24;20.60;99.90
19164;DHT22;9714;51.208;4.242;2023-05-07T08:27:51;20.50;99.90
19164;DHT22;9714;51.208;4.242;2023-05-07T08:30:18;21.00;99.90
19164;DHT22;9714;51.208;4.242;2023-05-07T08:32:46;20.90;99.90
19164;DHT22;9714;51.208;4.242;2023-05-07T08:35:14;21.00;99.90
19164;DHT22;9714;51.208;4.242;2023-05-07T08:37:42;20.80;99.90
19164;DHT22;9714;51.208;4.242;2023-05-07T08:40:10;20.70;99.90
19164;DHT22;9714;51.208;4.242;2023-05-07T08:42:37;20.70;99.90
19164;DHT22;9714;51.208;4.242;2023-05-07T08:45:09;20.50;99.90
19164;DHT22;9714;51.208;4.242;2023-05-07T08:47:42;20.50;99.90
19164;DHT22;9714;51.208;4.242;2023-05-07T08:50:11;20.10;99.90
19164;DHT22;9714;51.208;4.242;2023-05-07T08:52:40;20.20;99.90
19164;DHT22;9714;51.208;4.242;2023-05-07T08:55:08;19.90;99.90
19164;DHT22;9714;51.208;4.242;2023-05-07T08:57:36;19.90;99.90
19164;DHT22;9714;51.208;4.242;2023-05-07T09:00:04;20.00;99.90
19164;DHT22;9714;51.208;4.242;2023-05-07T09:02:33;20.20;99.90
19164;DHT22;9714;51.208;4.242;2023-05-07T09:05:01;20.20;99.90
19164;DHT22;9714;51.208;4.242;2023-05-07T09:07:30;20.00;99.90
19164;DHT22;9714;51.208;4.242;2023-05-07T09:09:58;19.80;99.90
19164;DHT22;9714;51.208;4.242;2023-05-07T09:12:27;19.80;99.90
19164;DHT22;9714;51.208;4.242;2023-05-07T09:14:54;19.70;99.90
19164;DHT22;9714;51.208;4.242;2023-05-07T09:17:22;19.70;99.90
19164;DHT22;9714;51.208;4.242;2023-05-07T09:19:50;19.90;99.90
19164;DHT22;9714;51.208;4.242;2023-05-07T09:22:19;20.00;99.90
19164;DHT22;9714;51.208;4.242;2023-05-07T09:24:47;20.00;99.90
19164;DHT22;9714;51.208;4.242;2023-05-07T09:27:17;20.00;99.90
19164;DHT22;9714;51.208;4.242;2023-05-07T09:29:44;19.90;99.90
19164;DHT22;9714;51.208;4.242;2023-05-07T09:32:11;20.10;99.90
19164;DHT22;9714;51.208;4.242;2023-05-07T09:34:38;19.90;99.90
19164;DHT22;9714;51.208;4.242;2023-05-07T09:37:06;20.10;99.90
19164;DHT22;9714;51.208;4.242;2023-05-07T09:39:39;20.10;99.90
19164;DHT22;9714;51.208;4.242;2023-05-07T09:42:07;20.20;99.90
19164;DHT22;9714;51.208;4.242;2023-05-07T09:44:36;20.20;99.90
19164;DHT22;9714;51.208;4.242;2023-05-07T09:47:05;20.20;99.90
19164;DHT22;9714;51.208;4.242;2023-05-07T09:49:34;20.10;99.90
19164;DHT22;9714;51.208;4.242;2023-05-07T09:52:03;20.20;99.90
19164;DHT22;9714;51.208;4.242;2023-05-07T09:54:33;20.40;99.90
19164;DHT22;9714;51.208;4.242;2023-05-07T09:57:01;20.30;99.90
19164;DHT22;9714;51.208;4.242;2023-05-07T09:59:31;20.00;99.90
19164;DHT22;9714;51.208;4.242;2023-05-07T10:02:00;19.90;99.90
19164;DHT22;9714;51.208;4.242;2023-05-07T10:04:28;19.80;99.90
19164;DHT22;9714;51.208;4.242;2023-05-07T10:06:55;19.80;99.90
19164;DHT22;9714;51.208;4.242;2023-05-07T10:09:23;20.00;99.90
19164;DHT22;9714;51.208;4.242;2023-05-07T10:11:54;19.90;99.90
19164;DHT22;9714;51.208;4.242;2023-05-07T10:14:22;20.00;99.90
19164;DHT22;9714;51.208;4.242;2023-05-07T10:16:53;20.10;99.90
19164;DHT22;9714;51.208;4.242;2023-05-07T10:19:23;20.20;99.90
19164;DHT22;9714;51.208;4.242;2023-05-07T10:22:03;20.00;99.90
19164;DHT22;9714;51.208;4.242;2023-05-07T10:24:32;20.00;99.90
19164;DHT22;9714;51.208;4.242;2023-05-07T10:27:02;20.30;99.90
19164;DHT22;9714;51.208;4.242;2023-05-07T10:29:36;20.30;99.90
19164;DHT22;9714;51.208;4.242;2023-05-07T10:34:56;20.70;99.90
19164;DHT22;9714;51.208;4.242;2023-05-07T10:37:28;20.60;99.90
19164;DHT22;9714;51.208;4.242;2023-05-07T10:39:55;20.40;99.90
19164;DHT22;9714;51.208;4.242;2023-05-07T10:42:23;20.30;99.90
19164;DHT22;9714;51.208;4.242;2023-05-07T10:44:51;20.30;99.90
19164;DHT22;9714;51.208;4.242;2023-05-07T10:47:21;20.40;99.90
19164;DHT22;9714;51.208;4.242;2023-05-07T10:50:23;20.40;99.90
19164;DHT22;9714;51.208;4.242;2023-05-07T10:53:24;20.50;99.90
19164;DHT22;9714;51.208;4.242;2023-05-07T10:56:26;20.90;99.90
19164;DHT22;9714;51.208;4.242;2023-05-07T11:01:52;20.90;99.90
19164;DHT22;9714;51.208;4.242;2023-05-07T11:04:19;20.60;99.90
19164;DHT22;9714;51.208;4.242;2023-05-07T11:10:02;20.70;99.90
19164;DHT22;9714;51.208;4.242;2023-05-07T11:12:54;20.70;99.90
19164;DHT22;9714;51.208;4.242;2023-05-07T11:15:40;20.70;99.90
19164;DHT22;9714;51.208;4.242;2023-05-07T11:18:09;20.40;99.90
19164;DHT22;9714;51.208;4.242;2023-05-07T11:20:56;20.50;99.90
19164;DHT22;9714;51.208;4.242;2023-05-07T11:23:55;20.60;99.90
19164;DHT22;9714;51.208;4.242;2023-05-07T11:26:28;20.40;99.90
19164;DHT22;9714;51.208;4.242;2023-05-07T11:28:55;20.80;99.90
19164;DHT22;9714;51.208;4.242;2023-05-07T11:31:25;21.20;99.90
19164;DHT22;9714;51.208;4.242;2023-05-07T11:33:54;21.10;99.90
19164;DHT22;9714;51.208;4.242;2023-05-07T11:36:23;21.10;99.90
19164;DHT22;9714;51.208;4.242;2023-05-07T11:38:50;21.10;99.90
19164;DHT22;9714;51.208;4.242;2023-05-07T11:41:18;21.10;99.90
19164;DHT22;9714;51.208;4.242;2023-05-07T11:43:59;21.20;99.90
19164;DHT22;9714;51.208;4.242;2023-05-07T11:46:32;21.30;99.90
19164;DHT22;9714;51.208;4.242;2023-05-07T11:49:00;21.00;99.90
19164;DHT22;9714;51.208;4.242;2023-05-07T11:51:29;21.00;99.90
19164;DHT22;9714;51.208;4.242;2023-05-07T11:53:57;21.00;99.90
19164;DHT22;9714;51.208;4.242;2023-05-07T11:56:25;21.20;99.90
19164;DHT22;9714;51.208;4.242;2023-05-07T11:58:52;21.50;99.90
19164;DHT22;9714;51.208;4.242;2023-05-07T12:01:20;21.20;99.90
19164;DHT22;9714;51.208;4.242;2023-05-07T12:03:47;21.60;99.90
19164;DHT22;9714;51.208;4.242;2023-05-07T12:06:16;21.50;99.90
19164;DHT22;9714;51.208;4.242;2023-05-07T12:08:45;20.90;99.90
19164;DHT22;9714;51.208;4.242;2023-05-07T12:11:15;21.10;99.90
19164;DHT22;9714;51.208;4.242;2023-05-07T12:13:44;21.20;99.90
19164;DHT22;9714;51.208;4.242;2023-05-07T12:16:14;21.80;99.90
19164;DHT22;9714;51.208;4.242;2023-05-07T12:18:42;21.60;99.90
19164;DHT22;9714;51.208;4.242;2023-05-07T12:21:11;21.50;99.90
19164;DHT22;9714;51.208;4.242;2023-05-07T12:23:41;21.40;99.90
19164;DHT22;9714;51.208;4.242;2023-05-07T12:26:09;21.20;99.90
19164;DHT22;9714;51.208;4.242;2023-05-07T12:28:38;21.50;99.90
19164;DHT22;9714;51.208;4.242;2023-05-07T12:31:13;21.80;99.90
19164;DHT22;9714;51.208;4.242;2023-05-07T12:33:42;21.70;99.90
19164;DHT22;9714;51.208;4.242;2023-05-07T12:36:12;21.80;99.90
19164;DHT22;9714;51.208;4.242;2023-05-07T12:38:41;22.20;99.90
19164;DHT22;9714;51.208;4.242;2023-05-07T12:41:14;22.00;99.90
19164;DHT22;9714;51.208;4.242;2023-05-07T12:43:44;21.80;99.90
19164;DHT22;9714;51.208;4.242;2023-05-07T12:46:38;22.40;99.90
19164;DHT22;9714;51.208;4.242;2023-05-07T12:49:09;22.70;99.90
19164;DHT22;9714;51.208;4.242;2023-05-07T12:51:43;22.50;99.90
19164;DHT22;9714;51.208;4.242;2023-05-07T12:54:12;22.60;99.90
19164;DHT22;9714;51.208;4.242;2023-05-07T12:56:40;23.40;99.90
19164;DHT22;9714;51.208;4.242;2023-05-07T12:59:08;23.40;99.90
19164;DHT22;9714;51.208;4.242;2023-05-07T13:01:37;23.40;99.90
19164;DHT22;9714;51.208;4.242;2023-05-07T13:04:12;23.30;99.90
19164;DHT22;9714;51.208;4.242;2023-05-07T13:06:40;23.60;99.90
19164;DHT22;9714;51.208;4.242;2023-05-07T13:09:07;23.40;99.90
19164;DHT22;9714;51.208;4.242;2023-05-07T13:11:43;23.50;99.90
19164;DHT22;9714;51.208;4.242;2023-05-07T13:14:13;23.80;99.90
19164;DHT22;9714;51.208;4.242;2023-05-07T13:16:40;24.00;99.90
19164;DHT22;9714;51.208;4.242;2023-05-07T13:19:17;23.70;99.90
19164;DHT22;9714;51.208;4.242;2023-05-07T13:21:46;22.40;99.90
19164;DHT22;9714;51.208;4.242;2023-05-07T13:24:14;22.80;99.90
19164;DHT22;9714;51.208;4.242;2023-05-07T13:26:42;22.40;99.90
19164;DHT22;9714;51.208;4.242;2023-05-07T13:29:27;22.40;99.90
19164;DHT22;9714;51.208;4.242;2023-05-07T13:32:02;21.90;99.90
19164;DHT22;9714;51.208;4.242;2023-05-07T13:34:30;21.50;99.90
19164;DHT22;9714;51.208;4.242;2023-05-07T13:36:57;21.50;99.90
19164;DHT22;9714;51.208;4.242;2023-05-07T13:39:24;22.20;99.90
19164;DHT22;9714;51.208;4.242;2023-05-07T13:41:51;22.60;99.90
19164;DHT22;9714;51.208;4.242;2023-05-07T13:44:20;22.20;99.90
19164;DHT22;9714;51.208;4.242;2023-05-07T13:46:49;21.90;99.90
19164;DHT22;9714;51.208;4.242;2023-05-07T13:49:17;21.90;99.90
19164;DHT22;9714;51.208;4.242;2023-05-07T13:51:47;22.30;99.90
19164;DHT22;9714;51.208;4.242;2023-05-07T13:54:15;22.70;99.90
19164;DHT22;9714;51.208;4.242;2023-05-07T13:56:48;22.30;99.90
19164;DHT22;9714;51.208;4.242;2023-05-07T13:59:15;22.30;99.90
19164;DHT22;9714;51.208;4.242;2023-05-07T14:01:43;23.00;99.90
19164;DHT22;9714;51.208;4.242;2023-05-07T14:04:12;23.00;99.90
19164;DHT22;9714;51.208;4.242;2023-05-07T14:06:40;23.30;99.90
19164;DHT22;9714;51.208;4.242;2023-05-07T14:09:09;23.50;99.90
19164;DHT22;9714;51.208;4.242;2023-05-07T14:11:39;23.60;99.90
19164;DHT22;9714;51.208;4.242;2023-05-07T14:14:07;23.30;99.90
19164;DHT22;9714;51.208;4.242;2023-05-07T14:16:37;23.80;99.90
19164;DHT22;9714;51.208;4.242;2023-05-07T14:19:04;23.60;99.90
19164;DHT22;9714;51.208;4.242;2023-05-07T14:21:31;23.80;99.90
19164;DHT22;9714;51.208;4.242;2023-05-07T14:23:59;23.60;99.90
19164;DHT22;9714;51.208;4.242;2023-05-07T14:26:28;23.10;99.90
19164;DHT22;9714;51.208;4.242;2023-05-07T14:28:58;22.80;99.90
19164;DHT22;9714;51.208;4.242;2023-05-07T14:31:26;22.90;99.90
19164;DHT22;9714;51.208;4.242;2023-05-07T14:33:55;22.80;99.90
19164;DHT22;9714;51.208;4.242;2023-05-07T14:36:25;22.90;99.90
19164;DHT22;9714;51.208;4.242;2023-05-07T14:38:53;22.50;99.90
19164;DHT22;9714;51.208;4.242;2023-05-07T14:41:22;22.30;99.90
19164;DHT22;9714;51.208;4.242;2023-05-07T14:43:50;23.00;99.90
19164;DHT22;9714;51.208;4.242;2023-05-07T14:46:19;22.80;99.90
19164;DHT22;9714;51.208;4.242;2023-05-07T14:48:48;22.80;99.90
19164;DHT22;9714;51.208;4.242;2023-05-07T14:51:16;22.80;99.90
19164;DHT22;9714;51.208;4.242;2023-05-07T14:53:44;22.70;99.90
19164;DHT22;9714;51.208;4.242;2023-05-07T14:56:12;22.80;99.90
19164;DHT22;9714;51.208;4.242;2023-05-07T14:58:40;23.00;99.90
19164;DHT22;9714;51.208;4.242;2023-05-07T15:01:08;23.20;99.90
19164;DHT22;9714;51.208;4.242;2023-05-07T15:03:36;23.00;99.90
19164;DHT22;9714;51.208;4.242;2023-05-07T15:06:03;22.20;99.90
19164;DHT22;9714;51.208;4.242;2023-05-07T15:08:32;22.40;99.90
19164;DHT22;9714;51.208;4.242;2023-05-07T15:11:00;22.30;99.90
19164;DHT22;9714;51.208;4.242;2023-05-07T15:13:30;22.00;99.90
19164;DHT22;9714;51.208;4.242;2023-05-07T15:15:57;22.00;99.90
19164;DHT22;9714;51.208;4.242;2023-05-07T15:18:27;22.10;99.90
19164;DHT22;9714;51.208;4.242;2023-05-07T15:20:55;22.50;99.90
19164;DHT22;9714;51.208;4.242;2023-05-07T15:23:29;22.30;99.90
19164;DHT22;9714;51.208;4.242;2023-05-07T15:25:57;22.80;99.90
19164;DHT22;9714;51.208;4.242;2023-05-07T15:28:25;23.00;99.90
19164;DHT22;9714;51.208;4.242;2023-05-07T15:30:52;23.70;99.90
19164;DHT22;9714;51.208;4.242;2023-05-07T15:33:21;23.00;99.90
19164;DHT22;9714;51.208;4.242;2023-05-07T15:35:49;22.40;99.90
19164;DHT22;9714;51.208;4.242;2023-05-07T15:38:17;22.30;99.90
19164;DHT22;9714;51.208;4.242;2023-05-07T15:40:46;22.50;99.90
19164;DHT22;9714;51.208;4.242;2023-05-07T15:43:14;22.90;99.90
19164;DHT22;9714;51.208;4.242;2023-05-07T15:45:43;22.60;99.90
19164;DHT22;9714;51.208;4.242;2023-05-07T15:48:10;22.60;99.90
19164;DHT22;9714;51.208;4.242;2023-05-07T15:50:37;22.60;99.90
19164;DHT22;9714;51.208;4.242;2023-05-07T15:53:07;23.20;99.90
19164;DHT22;9714;51.208;4.242;2023-05-07T15:55:39;23.10;99.90
19164;DHT22;9714;51.208;4.242;2023-05-07T15:58:07;23.20;99.90
19164;DHT22;9714;51.208;4.242;2023-05-07T16:00:37;23.70;99.90
19164;DHT22;9714;51.208;4.242;2023-05-07T16:03:06;23.60;99.90